KLSE/LSE METAR and TAF weather

Enter ICAO airport designator
Station Type Date Time Source
KLSE METAR 2019/08/23 14:53 UTC NOAA

KLSE 231453Z 11007KT 10SM OVC045 19/13 A3024 RMK AO2 SLP236 T01940133 51017


Station Type Date Time Source
KLSE Decoded METAR 2019/08/23 14:53 UTC NOAA

Station name not available
Aug 23, 2019 - 10:53 AM EDT / 2019.08.23 1453 UTC
Wind: from the ESE (110 degrees) at 8 MPH (7 KT):0
Visibility: 10 mile(s):0
Sky conditions: overcast
Temperature: 66.9 F (19.4 C)
Dew Point: 55.9 F (13.3 C)
Relative Humidity: 67%
Pressure (altimeter): 30.24 in. Hg (1024 hPa)
Pressure tendency: 0.05 inches (1.7 hPa) higher than three hours ago
ob: KLSE 231453Z 11007KT 10SM OVC045 19/13 A3024 RMK AO2 SLP236 T01940133 51017
cycle: 15

Station Type Date Time Source
KLSE TAF 2019/08/23 12:22 UTC NOAA

TAF KLSE 231120Z 2312/2412 13006KT P6SM BKN050
FM240200 12003KT P6SM SKC

Example: see airport list